sensor_id;sensor_type;location;lat;lon;timestamp;P1;durP1;ratioP1;P2;durP2;ratioP2
63444;SDS011;49573;47.682;9.170;2023-06-05T00:01:20;6.60;;;4.70;;
63444;SDS011;49573;47.682;9.170;2023-06-05T00:04:06;8.45;;;4.60;;
63444;SDS011;49573;47.682;9.170;2023-06-05T00:06:54;6.75;;;4.20;;
63444;SDS011;49573;47.682;9.170;2023-06-05T00:09:42;7.25;;;4.57;;
63444;SDS011;49573;47.682;9.170;2023-06-05T00:12:28;7.15;;;4.20;;
63444;SDS011;49573;47.682;9.170;2023-06-05T00:15:15;6.45;;;4.35;;
63444;SDS011;49573;47.682;9.170;2023-06-05T00:18:02;7.45;;;4.50;;
63444;SDS011;49573;47.682;9.170;2023-06-05T00:20:49;8.55;;;4.70;;
63444;SDS011;49573;47.682;9.170;2023-06-05T00:23:37;5.88;;;4.30;;
63444;SDS011;49573;47.682;9.170;2023-06-05T00:26:23;6.10;;;4.35;;
63444;SDS011;49573;47.682;9.170;2023-06-05T00:29:10;6.50;;;4.38;;
63444;SDS011;49573;47.682;9.170;2023-06-05T00:31:56;7.97;;;4.78;;
63444;SDS011;49573;47.682;9.170;2023-06-05T00:34:42;8.98;;;4.75;;
63444;SDS011;49573;47.682;9.170;2023-06-05T00:37:29;6.78;;;4.70;;
63444;SDS011;49573;47.682;9.170;2023-06-05T00:40:17;7.95;;;4.47;;
63444;SDS011;49573;47.682;9.170;2023-06-05T00:43:03;6.10;;;4.32;;
63444;SDS011;49573;47.682;9.170;2023-06-05T00:45:52;6.93;;;4.47;;
63444;SDS011;49573;47.682;9.170;2023-06-05T00:48:42;7.20;;;4.40;;
63444;SDS011;49573;47.682;9.170;2023-06-05T00:51:31;8.57;;;4.40;;
63444;SDS011;49573;47.682;9.170;2023-06-05T00:54:18;5.78;;;4.20;;
63444;SDS011;49573;47.682;9.170;2023-06-05T00:57:07;6.55;;;4.22;;
63444;SDS011;49573;47.682;9.170;2023-06-05T00:59:54;7.32;;;4.78;;
63444;SDS011;49573;47.682;9.170;2023-06-05T01:02:40;6.72;;;4.50;;
63444;SDS011;49573;47.682;9.170;2023-06-05T01:05:26;6.78;;;4.60;;
63444;SDS011;49573;47.682;9.170;2023-06-05T01:08:14;7.85;;;4.53;;
63444;SDS011;49573;47.682;9.170;2023-06-05T01:11:02;7.07;;;4.50;;
63444;SDS011;49573;47.682;9.170;2023-06-05T01:13:56;6.90;;;4.70;;
63444;SDS011;49573;47.682;9.170;2023-06-05T01:16:48;6.85;;;4.57;;
63444;SDS011;49573;47.682;9.170;2023-06-05T01:19:38;6.88;;;4.57;;
63444;SDS011;49573;47.682;9.170;2023-06-05T01:22:25;7.15;;;4.57;;
63444;SDS011;49573;47.682;9.170;2023-06-05T01:25:13;7.45;;;4.95;;
63444;SDS011;49573;47.682;9.170;2023-06-05T01:28:00;8.18;;;4.53;;
63444;SDS011;49573;47.682;9.170;2023-06-05T01:30:52;8.80;;;4.93;;
63444;SDS011;49573;47.682;9.170;2023-06-05T01:33:46;7.30;;;4.95;;
63444;SDS011;49573;47.682;9.170;2023-06-05T01:36:37;7.18;;;4.50;;
63444;SDS011;49573;47.682;9.170;2023-06-05T01:39:25;7.00;;;4.50;;
63444;SDS011;49573;47.682;9.170;2023-06-05T01:42:13;5.90;;;4.18;;
63444;SDS011;49573;47.682;9.170;2023-06-05T01:45:00;7.60;;;4.47;;
63444;SDS011;49573;47.682;9.170;2023-06-05T01:47:48;6.25;;;4.45;;
63444;SDS011;49573;47.682;9.170;2023-06-05T01:50:35;7.85;;;4.97;;
63444;SDS011;49573;47.682;9.170;2023-06-05T01:53:23;5.63;;;4.10;;
63444;SDS011;49573;47.682;9.170;2023-06-05T01:56:09;8.27;;;4.70;;
63444;SDS011;49573;47.682;9.170;2023-06-05T01:58:57;7.68;;;4.65;;
63444;SDS011;49573;47.682;9.170;2023-06-05T02:01:43;6.63;;;4.65;;
63444;SDS011;49573;47.682;9.170;2023-06-05T02:04:30;8.80;;;5.25;;
63444;SDS011;49573;47.682;9.170;2023-06-05T02:07:16;6.57;;;4.70;;
63444;SDS011;49573;47.682;9.170;2023-06-05T02:12:50;6.40;;;4.20;;
63444;SDS011;49573;47.682;9.170;2023-06-05T02:15:38;8.18;;;4.80;;
63444;SDS011;49573;47.682;9.170;2023-06-05T02:18:26;7.20;;;4.78;;
63444;SDS011;49573;47.682;9.170;2023-06-05T02:21:14;6.93;;;4.60;;
63444;SDS011;49573;47.682;9.170;2023-06-05T02:24:01;7.45;;;5.13;;
63444;SDS011;49573;47.682;9.170;2023-06-05T02:26:47;8.45;;;4.70;;
63444;SDS011;49573;47.682;9.170;2023-06-05T02:29:34;6.45;;;4.65;;
63444;SDS011;49573;47.682;9.170;2023-06-05T02:32:21;9.90;;;5.00;;
63444;SDS011;49573;47.682;9.170;2023-06-05T02:35:11;8.18;;;4.63;;
63444;SDS011;49573;47.682;9.170;2023-06-05T02:37:58;8.88;;;5.05;;
63444;SDS011;49573;47.682;9.170;2023-06-05T02:40:44;7.43;;;4.80;;
63444;SDS011;49573;47.682;9.170;2023-06-05T02:43:30;7.20;;;4.65;;
63444;SDS011;49573;47.682;9.170;2023-06-05T02:46:16;8.13;;;4.30;;
63444;SDS011;49573;47.682;9.170;2023-06-05T02:49:03;7.80;;;4.60;;
63444;SDS011;49573;47.682;9.170;2023-06-05T02:51:50;8.05;;;4.90;;
63444;SDS011;49573;47.682;9.170;2023-06-05T02:54:37;6.87;;;4.60;;
63444;SDS011;49573;47.682;9.170;2023-06-05T02:57:23;8.02;;;5.03;;
63444;SDS011;49573;47.682;9.170;2023-06-05T03:00:12;6.47;;;4.57;;
63444;SDS011;49573;47.682;9.170;2023-06-05T03:03:02;9.02;;;5.75;;
63444;SDS011;49573;47.682;9.170;2023-06-05T03:05:50;6.72;;;4.60;;
63444;SDS011;49573;47.682;9.170;2023-06-05T03:08:37;6.75;;;4.40;;
63444;SDS011;49573;47.682;9.170;2023-06-05T03:11:23;9.10;;;4.73;;
63444;SDS011;49573;47.682;9.170;2023-06-05T03:14:10;7.53;;;5.03;;
63444;SDS011;49573;47.682;9.170;2023-06-05T03:16:57;8.25;;;4.88;;
63444;SDS011;49573;47.682;9.170;2023-06-05T03:19:43;8.75;;;5.80;;
63444;SDS011;49573;47.682;9.170;2023-06-05T03:22:31;7.63;;;5.00;;
63444;SDS011;49573;47.682;9.170;2023-06-05T03:25:17;6.72;;;4.72;;
63444;SDS011;49573;47.682;9.170;2023-06-05T03:28:03;7.32;;;4.60;;
63444;SDS011;49573;47.682;9.170;2023-06-05T03:30:49;7.93;;;5.03;;
63444;SDS011;49573;47.682;9.170;2023-06-05T03:33:35;9.30;;;4.72;;
63444;SDS011;49573;47.682;9.170;2023-06-05T03:36:21;8.60;;;4.97;;
63444;SDS011;49573;47.682;9.170;2023-06-05T03:39:09;6.07;;;4.43;;
63444;SDS011;49573;47.682;9.170;2023-06-05T03:41:55;6.60;;;4.63;;
63444;SDS011;49573;47.682;9.170;2023-06-05T03:44:41;8.20;;;4.70;;
63444;SDS011;49573;47.682;9.170;2023-06-05T03:47:27;6.50;;;4.63;;
63444;SDS011;49573;47.682;9.170;2023-06-05T03:50:14;8.25;;;5.00;;
63444;SDS011;49573;47.682;9.170;2023-06-05T03:53:03;6.43;;;4.88;;
63444;SDS011;49573;47.682;9.170;2023-06-05T03:58:38;10.02;;;4.78;;
63444;SDS011;49573;47.682;9.170;2023-06-05T04:01:25;6.85;;;4.85;;
63444;SDS011;49573;47.682;9.170;2023-06-05T04:04:11;6.10;;;4.13;;
63444;SDS011;49573;47.682;9.170;2023-06-05T04:06:57;9.02;;;4.80;;
63444;SDS011;49573;47.682;9.170;2023-06-05T04:09:43;6.20;;;4.88;;
63444;SDS011;49573;47.682;9.170;2023-06-05T04:12:31;9.43;;;4.83;;
63444;SDS011;49573;47.682;9.170;2023-06-05T04:15:17;8.13;;;4.55;;
63444;SDS011;49573;47.682;9.170;2023-06-05T04:18:03;8.43;;;4.80;;
63444;SDS011;49573;47.682;9.170;2023-06-05T04:20:50;7.18;;;4.70;;
63444;SDS011;49573;47.682;9.170;2023-06-05T04:23:36;6.40;;;4.50;;
63444;SDS011;49573;47.682;9.170;2023-06-05T04:26:22;7.85;;;4.60;;
63444;SDS011;49573;47.682;9.170;2023-06-05T04:29:12;6.47;;;4.57;;
63444;SDS011;49573;47.682;9.170;2023-06-05T04:32:00;7.35;;;4.90;;
63444;SDS011;49573;47.682;9.170;2023-06-05T04:34:47;8.15;;;4.97;;
63444;SDS011;49573;47.682;9.170;2023-06-05T04:37:33;7.30;;;4.82;;
63444;SDS011;49573;47.682;9.170;2023-06-05T04:40:20;10.38;;;4.70;;
63444;SDS011;49573;47.682;9.170;2023-06-05T04:43:07;7.53;;;4.80;;
63444;SDS011;49573;47.682;9.170;2023-06-05T04:45:55;7.20;;;4.90;;
63444;SDS011;49573;47.682;9.170;2023-06-05T04:48:42;8.18;;;4.82;;
63444;SDS011;49573;47.682;9.170;2023-06-05T04:51:30;6.93;;;5.05;;
63444;SDS011;49573;47.682;9.170;2023-06-05T04:54:17;6.22;;;4.80;;
63444;SDS011;49573;47.682;9.170;2023-06-05T04:57:03;6.78;;;4.55;;
63444;SDS011;49573;47.682;9.170;2023-06-05T04:59:51;6.57;;;4.85;;
63444;SDS011;49573;47.682;9.170;2023-06-05T05:02:39;7.25;;;4.43;;
63444;SDS011;49573;47.682;9.170;2023-06-05T05:05:25;7.65;;;4.78;;
63444;SDS011;49573;47.682;9.170;2023-06-05T05:08:11;6.82;;;4.55;;
63444;SDS011;49573;47.682;9.170;2023-06-05T05:10:57;8.20;;;4.63;;
63444;SDS011;49573;47.682;9.170;2023-06-05T05:13:43;8.18;;;4.50;;
63444;SDS011;49573;47.682;9.170;2023-06-05T05:16:29;7.73;;;4.63;;
63444;SDS011;49573;47.682;9.170;2023-06-05T05:19:16;7.03;;;4.57;;
63444;SDS011;49573;47.682;9.170;2023-06-05T05:22:02;8.75;;;5.28;;
63444;SDS011;49573;47.682;9.170;2023-06-05T05:24:49;8.30;;;5.25;;
63444;SDS011;49573;47.682;9.170;2023-06-05T05:27:35;7.22;;;4.38;;
63444;SDS011;49573;47.682;9.170;2023-06-05T05:30:20;5.85;;;4.53;;
63444;SDS011;49573;47.682;9.170;2023-06-05T05:33:07;10.52;;;5.13;;
63444;SDS011;49573;47.682;9.170;2023-06-05T05:35:54;5.68;;;4.15;;
63444;SDS011;49573;47.682;9.170;2023-06-05T05:38:40;6.80;;;4.75;;
63444;SDS011;49573;47.682;9.170;2023-06-05T05:41:26;8.00;;;4.40;;
63444;SDS011;49573;47.682;9.170;2023-06-05T05:44:12;5.57;;;4.00;;
63444;SDS011;49573;47.682;9.170;2023-06-05T05:46:58;5.80;;;4.07;;
63444;SDS011;49573;47.682;9.170;2023-06-05T05:49:44;9.68;;;4.53;;
63444;SDS011;49573;47.682;9.170;2023-06-05T05:52:32;6.80;;;4.30;;
63444;SDS011;49573;47.682;9.170;2023-06-05T05:55:18;7.22;;;4.30;;
63444;SDS011;49573;47.682;9.170;2023-06-05T05:58:04;6.70;;;4.20;;
63444;SDS011;49573;47.682;9.170;2023-06-05T06:00:50;6.70;;;4.13;;
63444;SDS011;49573;47.682;9.170;2023-06-05T06:03:37;6.28;;;4.47;;
63444;SDS011;49573;47.682;9.170;2023-06-05T06:09:11;5.93;;;3.80;;
63444;SDS011;49573;47.682;9.170;2023-06-05T06:11:59;7.90;;;4.50;;
63444;SDS011;49573;47.682;9.170;2023-06-05T06:14:48;6.93;;;4.05;;
63444;SDS011;49573;47.682;9.170;2023-06-05T06:17:34;5.10;;;3.97;;
63444;SDS011;49573;47.682;9.170;2023-06-05T06:20:20;7.95;;;4.18;;
63444;SDS011;49573;47.682;9.170;2023-06-05T06:23:07;7.65;;;4.53;;
63444;SDS011;49573;47.682;9.170;2023-06-05T06:25:55;7.03;;;4.55;;
63444;SDS011;49573;47.682;9.170;2023-06-05T06:28:41;6.78;;;3.92;;
63444;SDS011;49573;47.682;9.170;2023-06-05T06:31:28;6.63;;;3.97;;
63444;SDS011;49573;47.682;9.170;2023-06-05T06:34:14;9.43;;;4.07;;
63444;SDS011;49573;47.682;9.170;2023-06-05T06:37:00;6.45;;;4.22;;
63444;SDS011;49573;47.682;9.170;2023-06-05T06:39:46;6.77;;;4.30;;
63444;SDS011;49573;47.682;9.170;2023-06-05T06:42:34;7.05;;;4.53;;
63444;SDS011;49573;47.682;9.170;2023-06-05T06:45:21;6.53;;;4.53;;
63444;SDS011;49573;47.682;9.170;2023-06-05T06:48:07;7.50;;;4.47;;
63444;SDS011;49573;47.682;9.170;2023-06-05T06:50:53;6.70;;;4.40;;
63444;SDS011;49573;47.682;9.170;2023-06-05T06:53:39;7.30;;;4.67;;
63444;SDS011;49573;47.682;9.170;2023-06-05T06:56:26;9.10;;;4.75;;
63444;SDS011;49573;47.682;9.170;2023-06-05T06:59:14;7.97;;;4.60;;
63444;SDS011;49573;47.682;9.170;2023-06-05T07:02:07;6.50;;;4.53;;
63444;SDS011;49573;47.682;9.170;2023-06-05T07:04:54;8.40;;;4.95;;
63444;SDS011;49573;47.682;9.170;2023-06-05T07:07:40;7.03;;;4.53;;
63444;SDS011;49573;47.682;9.170;2023-06-05T07:10:27;6.80;;;4.73;;
63444;SDS011;49573;47.682;9.170;2023-06-05T07:16:01;12.95;;;4.88;;
63444;SDS011;49573;47.682;9.170;2023-06-05T07:18:47;7.20;;;4.85;;
63444;SDS011;49573;47.682;9.170;2023-06-05T07:24:23;8.05;;;4.55;;
63444;SDS011;49573;47.682;9.170;2023-06-05T07:27:09;7.72;;;4.57;;
63444;SDS011;49573;47.682;9.170;2023-06-05T07:29:55;7.15;;;4.68;;
63444;SDS011;49573;47.682;9.170;2023-06-05T07:32:44;7.90;;;4.90;;
63444;SDS011;49573;47.682;9.170;2023-06-05T07:35:30;7.15;;;4.40;;
63444;SDS011;49573;47.682;9.170;2023-06-05T07:38:17;7.00;;;4.65;;
63444;SDS011;49573;47.682;9.170;2023-06-05T07:41:03;7.60;;;5.00;;
63444;SDS011;49573;47.682;9.170;2023-06-05T07:43:49;6.30;;;4.47;;
63444;SDS011;49573;47.682;9.170;2023-06-05T07:46:35;6.60;;;4.40;;
63444;SDS011;49573;47.682;9.170;2023-06-05T07:49:23;12.80;;;5.13;;
63444;SDS011;49573;47.682;9.170;2023-06-05T07:52:09;6.40;;;4.95;;
63444;SDS011;49573;47.682;9.170;2023-06-05T07:54:55;6.68;;;4.70;;
63444;SDS011;49573;47.682;9.170;2023-06-05T07:57:41;7.30;;;5.00;;
63444;SDS011;49573;47.682;9.170;2023-06-05T08:00:29;8.90;;;4.85;;
63444;SDS011;49573;47.682;9.170;2023-06-05T08:03:15;7.63;;;5.10;;
63444;SDS011;49573;47.682;9.170;2023-06-05T08:06:06;7.25;;;5.03;;
63444;SDS011;49573;47.682;9.170;2023-06-05T08:08:52;7.88;;;5.00;;
63444;SDS011;49573;47.682;9.170;2023-06-05T08:11:38;5.93;;;4.35;;
63444;SDS011;49573;47.682;9.170;2023-06-05T08:14:27;7.75;;;5.03;;
63444;SDS011;49573;47.682;9.170;2023-06-05T08:17:13;9.30;;;4.90;;
63444;SDS011;49573;47.682;9.170;2023-06-05T08:19:59;8.90;;;5.03;;
63444;SDS011;49573;47.682;9.170;2023-06-05T08:22:46;7.70;;;5.25;;
63444;SDS011;49573;47.682;9.170;2023-06-05T08:25:33;9.15;;;5.18;;
63444;SDS011;49573;47.682;9.170;2023-06-05T08:28:19;8.70;;;5.47;;
63444;SDS011;49573;47.682;9.170;2023-06-05T08:31:05;7.50;;;5.15;;
63444;SDS011;49573;47.682;9.170;2023-06-05T08:33:51;8.13;;;5.30;;
63444;SDS011;49573;47.682;9.170;2023-06-05T08:36:37;8.38;;;5.28;;
63444;SDS011;49573;47.682;9.170;2023-06-05T08:39:24;9.52;;;5.35;;
63444;SDS011;49573;47.682;9.170;2023-06-05T08:42:14;9.32;;;5.43;;
63444;SDS011;49573;47.682;9.170;2023-06-05T08:45:04;7.97;;;5.05;;
63444;SDS011;49573;47.682;9.170;2023-06-05T08:47:51;11.32;;;5.57;;
63444;SDS011;49573;47.682;9.170;2023-06-05T08:50:40;7.55;;;5.57;;
63444;SDS011;49573;47.682;9.170;2023-06-05T08:53:28;8.30;;;5.38;;
63444;SDS011;49573;47.682;9.170;2023-06-05T08:56:21;7.57;;;5.55;;
63444;SDS011;49573;47.682;9.170;2023-06-05T08:59:08;8.38;;;5.13;;
63444;SDS011;49573;47.682;9.170;2023-06-05T09:01:56;7.68;;;5.13;;
63444;SDS011;49573;47.682;9.170;2023-06-05T09:04:42;10.77;;;5.07;;
63444;SDS011;49573;47.682;9.170;2023-06-05T09:07:29;7.45;;;5.13;;
63444;SDS011;49573;47.682;9.170;2023-06-05T09:10:23;8.48;;;5.38;;
63444;SDS011;49573;47.682;9.170;2023-06-05T09:13:11;6.97;;;5.07;;
63444;SDS011;49573;47.682;9.170;2023-06-05T09:15:57;7.30;;;5.43;;
63444;SDS011;49573;47.682;9.170;2023-06-05T09:18:53;6.88;;;4.85;;
63444;SDS011;49573;47.682;9.170;2023-06-05T09:24:38;8.00;;;5.53;;
63444;SDS011;49573;47.682;9.170;2023-06-05T09:27:26;8.82;;;5.60;;
63444;SDS011;49573;47.682;9.170;2023-06-05T09:30:13;9.48;;;5.97;;
63444;SDS011;49573;47.682;9.170;2023-06-05T09:33:07;9.38;;;5.35;;
63444;SDS011;49573;47.682;9.170;2023-06-05T09:36:01;7.53;;;5.18;;
63444;SDS011;49573;47.682;9.170;2023-06-05T09:38:48;7.40;;;5.47;;
63444;SDS011;49573;47.682;9.170;2023-06-05T09:41:36;8.02;;;5.82;;
63444;SDS011;49573;47.682;9.170;2023-06-05T09:44:27;8.02;;;5.55;;
63444;SDS011;49573;47.682;9.170;2023-06-05T09:47:16;6.97;;;5.00;;
63444;SDS011;49573;47.682;9.170;2023-06-05T09:50:10;7.63;;;5.88;;
63444;SDS011;49573;47.682;9.170;2023-06-05T09:53:06;7.97;;;5.47;;
63444;SDS011;49573;47.682;9.170;2023-06-05T09:55:54;6.97;;;5.05;;
63444;SDS011;49573;47.682;9.170;2023-06-05T09:58:41;8.10;;;5.68;;
63444;SDS011;49573;47.682;9.170;2023-06-05T10:01:30;9.25;;;5.80;;
63444;SDS011;49573;47.682;9.170;2023-06-05T10:04:22;6.80;;;5.40;;
63444;SDS011;49573;47.682;9.170;2023-06-05T10:07:09;11.95;;;5.75;;
63444;SDS011;49573;47.682;9.170;2023-06-05T10:09:56;7.97;;;5.75;;
63444;SDS011;49573;47.682;9.170;2023-06-05T10:12:43;7.68;;;6.07;;
63444;SDS011;49573;47.682;9.170;2023-06-05T10:15:30;8.38;;;5.53;;
63444;SDS011;49573;47.682;9.170;2023-06-05T10:18:17;8.52;;;5.72;;
63444;SDS011;49573;47.682;9.170;2023-06-05T10:21:04;7.90;;;5.68;;
63444;SDS011;49573;47.682;9.170;2023-06-05T10:23:52;7.78;;;6.00;;
63444;SDS011;49573;47.682;9.170;2023-06-05T10:26:52;7.93;;;5.88;;
63444;SDS011;49573;47.682;9.170;2023-06-05T10:30:05;7.55;;;5.28;;
63444;SDS011;49573;47.682;9.170;2023-06-05T10:33:04;6.88;;;5.13;;
63444;SDS011;49573;47.682;9.170;2023-06-05T10:36:06;6.95;;;5.93;;
63444;SDS011;49573;47.682;9.170;2023-06-05T10:39:01;8.77;;;5.60;;
63444;SDS011;49573;47.682;9.170;2023-06-05T10:41:49;8.45;;;5.35;;
63444;SDS011;49573;47.682;9.170;2023-06-05T10:44:39;6.80;;;5.10;;
63444;SDS011;49573;47.682;9.170;2023-06-05T10:50:34;7.95;;;5.55;;
63444;SDS011;49573;47.682;9.170;2023-06-05T10:56:53;6.65;;;5.57;;
63444;SDS011;49573;47.682;9.170;2023-06-05T10:59:45;7.15;;;5.57;;
63444;SDS011;49573;47.682;9.170;2023-06-05T11:02:51;7.97;;;5.40;;
63444;SDS011;49573;47.682;9.170;2023-06-05T11:05:38;8.20;;;5.50;;
63444;SDS011;49573;47.682;9.170;2023-06-05T11:09:07;8.05;;;5.38;;
63444;SDS011;49573;47.682;9.170;2023-06-05T11:14:45;7.03;;;5.25;;
63444;SDS011;49573;47.682;9.170;2023-06-05T11:17:32;6.82;;;5.10;;
63444;SDS011;49573;47.682;9.170;2023-06-05T11:23:36;8.18;;;5.30;;
63444;SDS011;49573;47.682;9.170;2023-06-05T11:26:40;6.57;;;5.20;;
63444;SDS011;49573;47.682;9.170;2023-06-05T11:29:30;7.13;;;5.03;;
63444;SDS011;49573;47.682;9.170;2023-06-05T11:35:02;6.88;;;5.30;;
63444;SDS011;49573;47.682;9.170;2023-06-05T11:37:51;7.05;;;5.38;;
63444;SDS011;49573;47.682;9.170;2023-06-05T11:40:54;6.88;;;5.38;;
63444;SDS011;49573;47.682;9.170;2023-06-05T11:43:41;9.18;;;5.38;;
63444;SDS011;49573;47.682;9.170;2023-06-05T11:46:37;5.22;;;4.57;;
63444;SDS011;49573;47.682;9.170;2023-06-05T11:49:24;8.95;;;6.18;;
63444;SDS011;49573;47.682;9.170;2023-06-05T11:52:16;7.13;;;5.40;;
63444;SDS011;49573;47.682;9.170;2023-06-05T11:55:10;7.35;;;5.53;;
63444;SDS011;49573;47.682;9.170;2023-06-05T11:57:59;8.32;;;5.72;;
63444;SDS011;49573;47.682;9.170;2023-06-05T12:00:46;6.40;;;5.00;;
63444;SDS011;49573;47.682;9.170;2023-06-05T12:03:32;7.25;;;5.40;;
63444;SDS011;49573;47.682;9.170;2023-06-05T12:06:18;7.78;;;5.15;;
63444;SDS011;49573;47.682;9.170;2023-06-05T12:09:07;6.70;;;5.18;;
63444;SDS011;49573;47.682;9.170;2023-06-05T12:12:06;7.30;;;5.05;;
63444;SDS011;49573;47.682;9.170;2023-06-05T12:14:54;5.88;;;5.10;;
63444;SDS011;49573;47.682;9.170;2023-06-05T12:17:47;7.13;;;5.00;;
63444;SDS011;49573;47.682;9.170;2023-06-05T12:20:37;6.85;;;5.22;;
63444;SDS011;49573;47.682;9.170;2023-06-05T12:23:25;6.00;;;4.80;;
63444;SDS011;49573;47.682;9.170;2023-06-05T12:26:13;7.28;;;5.80;;
63444;SDS011;49573;47.682;9.170;2023-06-05T12:29:04;6.32;;;5.18;;
63444;SDS011;49573;47.682;9.170;2023-06-05T12:31:52;8.05;;;5.30;;
63444;SDS011;49573;47.682;9.170;2023-06-05T12:34:42;7.15;;;5.40;;
63444;SDS011;49573;47.682;9.170;2023-06-05T12:37:35;7.45;;;4.95;;
63444;SDS011;49573;47.682;9.170;2023-06-05T12:40:24;6.78;;;4.65;;
63444;SDS011;49573;47.682;9.170;2023-06-05T12:43:15;9.27;;;5.65;;
63444;SDS011;49573;47.682;9.170;2023-06-05T12:46:03;10.95;;;5.13;;
63444;SDS011;49573;47.682;9.170;2023-06-05T12:51:37;6.80;;;4.68;;
63444;SDS011;49573;47.682;9.170;2023-06-05T12:54:23;8.05;;;5.32;;
63444;SDS011;49573;47.682;9.170;2023-06-05T12:57:13;7.45;;;5.47;;
63444;SDS011;49573;47.682;9.170;2023-06-05T13:00:02;9.30;;;5.75;;
63444;SDS011;49573;47.682;9.170;2023-06-05T13:02:58;5.90;;;4.70;;
63444;SDS011;49573;47.682;9.170;2023-06-05T13:08:32;9.27;;;5.20;;
63444;SDS011;49573;47.682;9.170;2023-06-05T13:11:18;8.05;;;5.10;;
63444;SDS011;49573;47.682;9.170;2023-06-05T13:14:04;8.90;;;4.75;;
63444;SDS011;49573;47.682;9.170;2023-06-05T13:16:51;7.53;;;5.82;;
63444;SDS011;49573;47.682;9.170;2023-06-05T13:19:37;8.27;;;5.45;;
63444;SDS011;49573;47.682;9.170;2023-06-05T13:22:23;6.53;;;4.90;;
63444;SDS011;49573;47.682;9.170;2023-06-05T13:25:11;8.38;;;5.13;;
63444;SDS011;49573;47.682;9.170;2023-06-05T13:27:58;8.38;;;5.32;;
63444;SDS011;49573;47.682;9.170;2023-06-05T13:30:44;6.88;;;5.13;;
63444;SDS011;49573;47.682;9.170;2023-06-05T13:33:30;5.38;;;4.45;;
63444;SDS011;49573;47.682;9.170;2023-06-05T13:36:18;7.35;;;5.13;;
63444;SDS011;49573;47.682;9.170;2023-06-05T13:39:04;7.03;;;4.70;;
63444;SDS011;49573;47.682;9.170;2023-06-05T13:41:51;8.13;;;5.47;;
63444;SDS011;49573;47.682;9.170;2023-06-05T13:44:38;8.40;;;4.80;;
63444;SDS011;49573;47.682;9.170;2023-06-05T13:50:10;6.95;;;4.88;;
63444;SDS011;49573;47.682;9.170;2023-06-05T13:52:57;5.57;;;4.80;;
63444;SDS011;49573;47.682;9.170;2023-06-05T13:58:31;5.90;;;4.77;;
63444;SDS011;49573;47.682;9.170;2023-06-05T14:01:17;6.38;;;5.05;;
63444;SDS011;49573;47.682;9.170;2023-06-05T14:06:50;8.15;;;4.78;;
63444;SDS011;49573;47.682;9.170;2023-06-05T14:09:38;8.55;;;5.03;;
63444;SDS011;49573;47.682;9.170;2023-06-05T14:12:25;6.47;;;4.90;;
63444;SDS011;49573;47.682;9.170;2023-06-05T14:15:12;5.45;;;4.35;;
63444;SDS011;49573;47.682;9.170;2023-06-05T14:18:00;7.93;;;4.93;;
63444;SDS011;49573;47.682;9.170;2023-06-05T14:20:46;6.72;;;5.18;;
63444;SDS011;49573;47.682;9.170;2023-06-05T14:23:33;6.75;;;5.10;;
63444;SDS011;49573;47.682;9.170;2023-06-05T14:26:19;7.45;;;4.95;;
63444;SDS011;49573;47.682;9.170;2023-06-05T14:29:07;8.93;;;5.38;;
63444;SDS011;49573;47.682;9.170;2023-06-05T14:31:54;7.05;;;4.80;;
63444;SDS011;49573;47.682;9.170;2023-06-05T14:34:41;6.32;;;5.15;;
63444;SDS011;49573;47.682;9.170;2023-06-05T14:37:27;6.55;;;4.95;;
63444;SDS011;49573;47.682;9.170;2023-06-05T14:40:13;6.32;;;4.80;;
63444;SDS011;49573;47.682;9.170;2023-06-05T14:42:59;5.47;;;4.97;;
63444;SDS011;49573;47.682;9.170;2023-06-05T14:45:45;7.80;;;4.88;;
63444;SDS011;49573;47.682;9.170;2023-06-05T14:48:33;6.35;;;4.85;;
63444;SDS011;49573;47.682;9.170;2023-06-05T14:51:19;6.30;;;4.97;;
63444;SDS011;49573;47.682;9.170;2023-06-05T14:54:05;6.45;;;4.95;;
63444;SDS011;49573;47.682;9.170;2023-06-05T14:56:51;5.90;;;4.80;;
63444;SDS011;49573;47.682;9.170;2023-06-05T14:59:37;7.10;;;4.80;;
63444;SDS011;49573;47.682;9.170;2023-06-05T15:02:24;8.80;;;5.30;;
63444;SDS011;49573;47.682;9.170;2023-06-05T15:05:11;6.47;;;4.70;;
63444;SDS011;49573;47.682;9.170;2023-06-05T15:07:58;7.20;;;5.10;;
63444;SDS011;49573;47.682;9.170;2023-06-05T15:10:45;5.30;;;4.38;;
63444;SDS011;49573;47.682;9.170;2023-06-05T15:13:31;7.63;;;4.90;;
63444;SDS011;49573;47.682;9.170;2023-06-05T15:16:17;9.00;;;5.55;;
63444;SDS011;49573;47.682;9.170;2023-06-05T15:19:04;7.90;;;5.15;;
63444;SDS011;49573;47.682;9.170;2023-06-05T15:21:52;6.07;;;4.43;;
63444;SDS011;49573;47.682;9.170;2023-06-05T15:24:38;7.00;;;5.05;;
63444;SDS011;49573;47.682;9.170;2023-06-05T15:27:24;7.03;;;5.00;;
63444;SDS011;49573;47.682;9.170;2023-06-05T15:30:11;7.43;;;5.10;;
63444;SDS011;49573;47.682;9.170;2023-06-05T15:32:57;6.60;;;4.93;;
63444;SDS011;49573;47.682;9.170;2023-06-05T15:35:43;6.80;;;4.95;;
63444;SDS011;49573;47.682;9.170;2023-06-05T15:38:32;6.70;;;4.80;;
63444;SDS011;49573;47.682;9.170;2023-06-05T15:41:18;8.50;;;4.72;;
63444;SDS011;49573;47.682;9.170;2023-06-05T15:44:05;6.07;;;5.05;;
63444;SDS011;49573;47.682;9.170;2023-06-05T15:46:53;7.30;;;4.88;;
63444;SDS011;49573;47.682;9.170;2023-06-05T15:49:39;6.38;;;4.93;;
63444;SDS011;49573;47.682;9.170;2023-06-05T15:52:26;8.00;;;4.72;;
63444;SDS011;49573;47.682;9.170;2023-06-05T15:55:17;8.55;;;4.68;;
63444;SDS011;49573;47.682;9.170;2023-06-05T15:58:04;7.20;;;4.95;;
63444;SDS011;49573;47.682;9.170;2023-06-05T16:00:50;8.45;;;4.80;;
63444;SDS011;49573;47.682;9.170;2023-06-05T16:03:37;7.05;;;4.75;;
63444;SDS011;49573;47.682;9.170;2023-06-05T16:06:23;6.13;;;4.38;;
63444;SDS011;49573;47.682;9.170;2023-06-05T16:09:10;7.70;;;5.00;;
63444;SDS011;49573;47.682;9.170;2023-06-05T16:11:57;7.90;;;5.00;;
63444;SDS011;49573;47.682;9.170;2023-06-05T16:14:45;6.07;;;5.10;;
63444;SDS011;49573;47.682;9.170;2023-06-05T16:17:32;6.10;;;4.90;;
63444;SDS011;49573;47.682;9.170;2023-06-05T16:20:18;7.03;;;5.00;;
63444;SDS011;49573;47.682;9.170;2023-06-05T16:23:05;6.35;;;4.70;;
63444;SDS011;49573;47.682;9.170;2023-06-05T16:25:51;7.10;;;4.82;;
63444;SDS011;49573;47.682;9.170;2023-06-05T16:28:39;7.35;;;4.53;;
63444;SDS011;49573;47.682;9.170;2023-06-05T16:31:25;9.82;;;5.05;;
63444;SDS011;49573;47.682;9.170;2023-06-05T16:34:12;9.60;;;4.57;;
63444;SDS011;49573;47.682;9.170;2023-06-05T16:36:58;7.18;;;4.85;;
63444;SDS011;49573;47.682;9.170;2023-06-05T16:39:45;5.82;;;4.82;;
63444;SDS011;49573;47.682;9.170;2023-06-05T16:42:31;6.38;;;4.72;;
63444;SDS011;49573;47.682;9.170;2023-06-05T16:45:19;6.30;;;5.25;;
63444;SDS011;49573;47.682;9.170;2023-06-05T16:48:06;6.50;;;4.68;;
63444;SDS011;49573;47.682;9.170;2023-06-05T16:50:55;6.45;;;4.80;;
63444;SDS011;49573;47.682;9.170;2023-06-05T16:53:41;6.50;;;5.10;;
63444;SDS011;49573;47.682;9.170;2023-06-05T16:56:28;7.95;;;4.93;;
63444;SDS011;49573;47.682;9.170;2023-06-05T16:59:14;6.03;;;4.90;;
63444;SDS011;49573;47.682;9.170;2023-06-05T17:02:03;5.82;;;4.82;;
63444;SDS011;49573;47.682;9.170;2023-06-05T17:04:50;5.68;;;4.78;;
63444;SDS011;49573;47.682;9.170;2023-06-05T17:07:36;5.35;;;4.80;;
63444;SDS011;49573;47.682;9.170;2023-06-05T17:10:23;6.05;;;5.03;;
63444;SDS011;49573;47.682;9.170;2023-06-05T17:13:09;5.97;;;4.72;;
63444;SDS011;49573;47.682;9.170;2023-06-05T17:15:55;6.40;;;4.65;;
63444;SDS011;49573;47.682;9.170;2023-06-05T17:18:43;7.32;;;4.85;;
63444;SDS011;49573;47.682;9.170;2023-06-05T17:21:29;6.65;;;4.80;;
63444;SDS011;49573;47.682;9.170;2023-06-05T17:24:17;6.85;;;4.65;;
63444;SDS011;49573;47.682;9.170;2023-06-05T17:27:07;6.57;;;4.82;;
63444;SDS011;49573;47.682;9.170;2023-06-05T17:32:40;7.53;;;4.88;;
63444;SDS011;49573;47.682;9.170;2023-06-05T17:38:14;6.45;;;5.10;;
63444;SDS011;49573;47.682;9.170;2023-06-05T17:41:00;6.30;;;5.07;;
63444;SDS011;49573;47.682;9.170;2023-06-05T17:46:33;5.93;;;4.90;;